sensor_id;sensor_type;location;lat;lon;timestamp;P1;durP1;ratioP1;P2;durP2;ratioP2
19341;SDS011;9807;48.258;12.690;2024-01-11T00:00:26;73.57;;;28.30;;
19341;SDS011;9807;48.258;12.690;2024-01-11T00:02:52;66.73;;;24.67;;
19341;SDS011;9807;48.258;12.690;2024-01-11T00:05:17;66.47;;;25.20;;
19341;SDS011;9807;48.258;12.690;2024-01-11T00:07:43;79.83;;;29.43;;
19341;SDS011;9807;48.258;12.690;2024-01-11T00:10:08;61.00;;;24.80;;
19341;SDS011;9807;48.258;12.690;2024-01-11T00:12:34;67.10;;;26.13;;
19341;SDS011;9807;48.258;12.690;2024-01-11T00:15:00;70.77;;;27.47;;
19341;SDS011;9807;48.258;12.690;2024-01-11T00:17:26;61.53;;;24.07;;
19341;SDS011;9807;48.258;12.690;2024-01-11T00:19:51;52.07;;;22.13;;
19341;SDS011;9807;48.258;12.690;2024-01-11T00:22:17;56.83;;;23.27;;
19341;SDS011;9807;48.258;12.690;2024-01-11T00:24:43;68.13;;;26.40;;
19341;SDS011;9807;48.258;12.690;2024-01-11T00:27:08;57.20;;;23.63;;
19341;SDS011;9807;48.258;12.690;2024-01-11T00:29:37;55.90;;;23.17;;
19341;SDS011;9807;48.258;12.690;2024-01-11T00:32:03;67.73;;;27.07;;
19341;SDS011;9807;48.258;12.690;2024-01-11T00:34:29;80.80;;;30.17;;
19341;SDS011;9807;48.258;12.690;2024-01-11T00:36:55;73.37;;;27.27;;
19341;SDS011;9807;48.258;12.690;2024-01-11T00:39:21;65.87;;;25.93;;
19341;SDS011;9807;48.258;12.690;2024-01-11T00:41:46;62.70;;;24.53;;
19341;SDS011;9807;48.258;12.690;2024-01-11T00:44:12;62.13;;;23.67;;
19341;SDS011;9807;48.258;12.690;2024-01-11T00:46:39;63.50;;;25.57;;
19341;SDS011;9807;48.258;12.690;2024-01-11T00:49:04;71.30;;;27.27;;
19341;SDS011;9807;48.258;12.690;2024-01-11T00:51:30;81.23;;;30.77;;
19341;SDS011;9807;48.258;12.690;2024-01-11T00:53:56;82.63;;;30.20;;
19341;SDS011;9807;48.258;12.690;2024-01-11T00:56:21;66.70;;;25.93;;
19341;SDS011;9807;48.258;12.690;2024-01-11T00:58:47;73.17;;;28.00;;
19341;SDS011;9807;48.258;12.690;2024-01-11T01:01:13;78.70;;;30.27;;
19341;SDS011;9807;48.258;12.690;2024-01-11T01:03:39;69.40;;;25.80;;
19341;SDS011;9807;48.258;12.690;2024-01-11T01:06:04;75.20;;;27.53;;
19341;SDS011;9807;48.258;12.690;2024-01-11T01:08:31;87.97;;;31.87;;
19341;SDS011;9807;48.258;12.690;2024-01-11T01:10:57;72.30;;;26.53;;
19341;SDS011;9807;48.258;12.690;2024-01-11T01:13:22;72.70;;;26.30;;
19341;SDS011;9807;48.258;12.690;2024-01-11T01:15:48;84.90;;;29.53;;
19341;SDS011;9807;48.258;12.690;2024-01-11T01:18:14;95.03;;;35.37;;
19341;SDS011;9807;48.258;12.690;2024-01-11T01:20:40;87.63;;;33.13;;
19341;SDS011;9807;48.258;12.690;2024-01-11T01:23:05;79.00;;;29.43;;
19341;SDS011;9807;48.258;12.690;2024-01-11T01:25:31;96.10;;;33.53;;
19341;SDS011;9807;48.258;12.690;2024-01-11T01:28:00;97.93;;;36.53;;
19341;SDS011;9807;48.258;12.690;2024-01-11T01:30:26;95.53;;;34.33;;
19341;SDS011;9807;48.258;12.690;2024-01-11T01:32:52;82.80;;;29.17;;
19341;SDS011;9807;48.258;12.690;2024-01-11T01:35:18;97.93;;;34.30;;
19341;SDS011;9807;48.258;12.690;2024-01-11T01:37:43;95.93;;;33.23;;
19341;SDS011;9807;48.258;12.690;2024-01-11T01:40:09;106.83;;;36.33;;
19341;SDS011;9807;48.258;12.690;2024-01-11T01:42:36;94.17;;;32.10;;
19341;SDS011;9807;48.258;12.690;2024-01-11T01:45:05;86.27;;;30.10;;
19341;SDS011;9807;48.258;12.690;2024-01-11T01:47:32;71.43;;;25.83;;
19341;SDS011;9807;48.258;12.690;2024-01-11T01:49:57;90.10;;;32.07;;
19341;SDS011;9807;48.258;12.690;2024-01-11T01:52:26;95.53;;;32.53;;
19341;SDS011;9807;48.258;12.690;2024-01-11T01:54:52;93.10;;;32.20;;
19341;SDS011;9807;48.258;12.690;2024-01-11T01:57:18;91.37;;;32.63;;
19341;SDS011;9807;48.258;12.690;2024-01-11T01:59:45;81.73;;;26.50;;
19341;SDS011;9807;48.258;12.690;2024-01-11T02:02:11;82.43;;;27.50;;
19341;SDS011;9807;48.258;12.690;2024-01-11T02:04:37;93.37;;;31.70;;
19341;SDS011;9807;48.258;12.690;2024-01-11T02:07:03;69.63;;;24.77;;
19341;SDS011;9807;48.258;12.690;2024-01-11T02:09:31;75.33;;;26.40;;
19341;SDS011;9807;48.258;12.690;2024-01-11T02:11:57;74.03;;;27.13;;
19341;SDS011;9807;48.258;12.690;2024-01-11T02:14:26;77.80;;;26.70;;
19341;SDS011;9807;48.258;12.690;2024-01-11T02:16:52;72.40;;;25.50;;
19341;SDS011;9807;48.258;12.690;2024-01-11T02:19:18;75.27;;;27.27;;
19341;SDS011;9807;48.258;12.690;2024-01-11T02:21:45;74.00;;;26.33;;
19341;SDS011;9807;48.258;12.690;2024-01-11T02:24:13;83.43;;;29.23;;
19341;SDS011;9807;48.258;12.690;2024-01-11T02:27:01;79.13;;;27.63;;
19341;SDS011;9807;48.258;12.690;2024-01-11T02:29:28;64.90;;;25.03;;
19341;SDS011;9807;48.258;12.690;2024-01-11T02:31:55;71.60;;;27.30;;
19341;SDS011;9807;48.258;12.690;2024-01-11T02:34:24;69.73;;;26.77;;
19341;SDS011;9807;48.258;12.690;2024-01-11T02:36:52;75.77;;;28.20;;
19341;SDS011;9807;48.258;12.690;2024-01-11T02:39:22;71.27;;;26.60;;
19341;SDS011;9807;48.258;12.690;2024-01-11T02:41:49;61.10;;;25.27;;
19341;SDS011;9807;48.258;12.690;2024-01-11T02:44:16;71.73;;;26.27;;
19341;SDS011;9807;48.258;12.690;2024-01-11T02:46:42;81.37;;;30.23;;
19341;SDS011;9807;48.258;12.690;2024-01-11T02:49:07;70.10;;;27.57;;
19341;SDS011;9807;48.258;12.690;2024-01-11T02:51:33;78.30;;;29.27;;
19341;SDS011;9807;48.258;12.690;2024-01-11T02:53:59;66.77;;;26.17;;
19341;SDS011;9807;48.258;12.690;2024-01-11T02:56:25;73.97;;;27.73;;
19341;SDS011;9807;48.258;12.690;2024-01-11T02:58:50;76.73;;;32.53;;
19341;SDS011;9807;48.258;12.690;2024-01-11T03:01:16;74.23;;;29.10;;
19341;SDS011;9807;48.258;12.690;2024-01-11T03:03:41;74.37;;;28.33;;
19341;SDS011;9807;48.258;12.690;2024-01-11T03:06:07;74.07;;;28.67;;
19341;SDS011;9807;48.258;12.690;2024-01-11T03:08:33;69.33;;;26.03;;
19341;SDS011;9807;48.258;12.690;2024-01-11T03:10:59;79.90;;;30.63;;
19341;SDS011;9807;48.258;12.690;2024-01-11T03:13:25;78.10;;;29.57;;
19341;SDS011;9807;48.258;12.690;2024-01-11T03:15:50;86.13;;;31.40;;
19341;SDS011;9807;48.258;12.690;2024-01-11T03:18:16;75.77;;;27.80;;
19341;SDS011;9807;48.258;12.690;2024-01-11T03:20:42;77.27;;;30.57;;
19341;SDS011;9807;48.258;12.690;2024-01-11T03:23:07;64.73;;;25.60;;
19341;SDS011;9807;48.258;12.690;2024-01-11T03:25:33;58.67;;;23.33;;
19341;SDS011;9807;48.258;12.690;2024-01-11T03:27:59;71.27;;;27.53;;
19341;SDS011;9807;48.258;12.690;2024-01-11T03:30:25;68.37;;;26.90;;
19341;SDS011;9807;48.258;12.690;2024-01-11T03:32:51;68.17;;;27.93;;
19341;SDS011;9807;48.258;12.690;2024-01-11T03:35:17;62.57;;;24.77;;
19341;SDS011;9807;48.258;12.690;2024-01-11T03:37:44;62.70;;;24.40;;
19341;SDS011;9807;48.258;12.690;2024-01-11T03:40:10;68.43;;;25.90;;
19341;SDS011;9807;48.258;12.690;2024-01-11T03:42:36;70.53;;;27.63;;
19341;SDS011;9807;48.258;12.690;2024-01-11T03:45:02;82.87;;;30.63;;
19341;SDS011;9807;48.258;12.690;2024-01-11T03:47:29;85.07;;;32.10;;
19341;SDS011;9807;48.258;12.690;2024-01-11T03:49:55;76.17;;;27.53;;
19341;SDS011;9807;48.258;12.690;2024-01-11T03:52:20;58.27;;;23.50;;
19341;SDS011;9807;48.258;12.690;2024-01-11T03:54:46;59.90;;;23.83;;
19341;SDS011;9807;48.258;12.690;2024-01-11T03:57:12;60.77;;;23.40;;
19341;SDS011;9807;48.258;12.690;2024-01-11T03:59:37;69.40;;;27.33;;
19341;SDS011;9807;48.258;12.690;2024-01-11T04:02:03;85.67;;;31.27;;
19341;SDS011;9807;48.258;12.690;2024-01-11T04:04:29;96.90;;;32.17;;
19341;SDS011;9807;48.258;12.690;2024-01-11T04:06:55;93.80;;;32.87;;
19341;SDS011;9807;48.258;12.690;2024-01-11T04:09:20;74.93;;;28.90;;
19341;SDS011;9807;48.258;12.690;2024-01-11T04:11:46;86.47;;;31.40;;
19341;SDS011;9807;48.258;12.690;2024-01-11T04:14:12;89.07;;;32.23;;
19341;SDS011;9807;48.258;12.690;2024-01-11T04:16:43;85.03;;;31.27;;
19341;SDS011;9807;48.258;12.690;2024-01-11T04:19:09;76.00;;;28.60;;
19341;SDS011;9807;48.258;12.690;2024-01-11T04:21:35;66.20;;;25.10;;
19341;SDS011;9807;48.258;12.690;2024-01-11T04:24:04;69.13;;;26.10;;
19341;SDS011;9807;48.258;12.690;2024-01-11T04:26:33;97.20;;;31.90;;
19341;SDS011;9807;48.258;12.690;2024-01-11T04:28:59;83.97;;;30.87;;
19341;SDS011;9807;48.258;12.690;2024-01-11T04:31:25;72.00;;;25.77;;
19341;SDS011;9807;48.258;12.690;2024-01-11T04:33:54;95.50;;;31.97;;
19341;SDS011;9807;48.258;12.690;2024-01-11T04:36:19;89.87;;;32.40;;
19341;SDS011;9807;48.258;12.690;2024-01-11T04:38:45;85.90;;;32.27;;
19341;SDS011;9807;48.258;12.690;2024-01-11T04:41:11;80.57;;;29.87;;
19341;SDS011;9807;48.258;12.690;2024-01-11T04:46:12;85.00;;;32.50;;
19341;SDS011;9807;48.258;12.690;2024-01-11T04:48:48;94.03;;;31.90;;
19341;SDS011;9807;48.258;12.690;2024-01-11T04:51:14;87.00;;;29.97;;
19341;SDS011;9807;48.258;12.690;2024-01-11T04:53:41;89.67;;;31.73;;
19341;SDS011;9807;48.258;12.690;2024-01-11T04:56:07;99.30;;;31.73;;
19341;SDS011;9807;48.258;12.690;2024-01-11T04:58:34;75.23;;;25.97;;
19341;SDS011;9807;48.258;12.690;2024-01-11T05:01:01;81.47;;;28.07;;
19341;SDS011;9807;48.258;12.690;2024-01-11T05:03:27;88.73;;;29.67;;
19341;SDS011;9807;48.258;12.690;2024-01-11T05:05:53;99.50;;;32.80;;
19341;SDS011;9807;48.258;12.690;2024-01-11T05:08:19;92.57;;;31.50;;
19341;SDS011;9807;48.258;12.690;2024-01-11T05:10:44;102.67;;;33.40;;
19341;SDS011;9807;48.258;12.690;2024-01-11T05:13:10;86.63;;;29.87;;
19341;SDS011;9807;48.258;12.690;2024-01-11T05:15:35;94.43;;;32.57;;
19341;SDS011;9807;48.258;12.690;2024-01-11T05:18:01;90.87;;;32.07;;
19341;SDS011;9807;48.258;12.690;2024-01-11T05:20:27;87.20;;;30.13;;
19341;SDS011;9807;48.258;12.690;2024-01-11T05:22:52;72.27;;;26.70;;
19341;SDS011;9807;48.258;12.690;2024-01-11T05:25:19;77.47;;;26.77;;
19341;SDS011;9807;48.258;12.690;2024-01-11T05:27:44;89.30;;;30.50;;
19341;SDS011;9807;48.258;12.690;2024-01-11T05:30:10;64.90;;;24.67;;
19341;SDS011;9807;48.258;12.690;2024-01-11T05:32:36;81.37;;;27.73;;
19341;SDS011;9807;48.258;12.690;2024-01-11T05:35:02;92.33;;;31.40;;
19341;SDS011;9807;48.258;12.690;2024-01-11T05:37:27;87.17;;;29.30;;
19341;SDS011;9807;48.258;12.690;2024-01-11T05:39:53;62.10;;;23.87;;
19341;SDS011;9807;48.258;12.690;2024-01-11T05:42:19;75.30;;;27.37;;
19341;SDS011;9807;48.258;12.690;2024-01-11T05:44:45;92.87;;;30.67;;
19341;SDS011;9807;48.258;12.690;2024-01-11T05:47:10;81.53;;;29.97;;
19341;SDS011;9807;48.258;12.690;2024-01-11T05:49:36;101.17;;;32.80;;
19341;SDS011;9807;48.258;12.690;2024-01-11T05:52:02;83.87;;;30.70;;
19341;SDS011;9807;48.258;12.690;2024-01-11T05:54:28;91.90;;;32.23;;
19341;SDS011;9807;48.258;12.690;2024-01-11T05:56:53;82.57;;;29.07;;
19341;SDS011;9807;48.258;12.690;2024-01-11T05:59:22;78.30;;;28.13;;
19341;SDS011;9807;48.258;12.690;2024-01-11T06:01:48;79.10;;;30.33;;
19341;SDS011;9807;48.258;12.690;2024-01-11T06:04:13;94.07;;;33.97;;
19341;SDS011;9807;48.258;12.690;2024-01-11T06:06:39;99.77;;;33.33;;
19341;SDS011;9807;48.258;12.690;2024-01-11T06:09:05;87.27;;;32.20;;
19341;SDS011;9807;48.258;12.690;2024-01-11T06:11:31;94.47;;;33.83;;
19341;SDS011;9807;48.258;12.690;2024-01-11T06:13:57;73.10;;;27.43;;
19341;SDS011;9807;48.258;12.690;2024-01-11T06:16:22;79.70;;;28.93;;
19341;SDS011;9807;48.258;12.690;2024-01-11T06:18:48;100.70;;;34.27;;
19341;SDS011;9807;48.258;12.690;2024-01-11T06:21:15;70.63;;;26.83;;
19341;SDS011;9807;48.258;12.690;2024-01-11T06:23:42;88.30;;;31.60;;
19341;SDS011;9807;48.258;12.690;2024-01-11T06:26:08;81.60;;;30.93;;
19341;SDS011;9807;48.258;12.690;2024-01-11T06:28:34;93.03;;;32.90;;
19341;SDS011;9807;48.258;12.690;2024-01-11T06:30:59;100.03;;;35.03;;
19341;SDS011;9807;48.258;12.690;2024-01-11T06:33:28;89.90;;;32.17;;
19341;SDS011;9807;48.258;12.690;2024-01-11T06:35:54;83.23;;;30.40;;
19341;SDS011;9807;48.258;12.690;2024-01-11T06:38:19;86.07;;;31.33;;
19341;SDS011;9807;48.258;12.690;2024-01-11T06:40:45;90.53;;;32.77;;
19341;SDS011;9807;48.258;12.690;2024-01-11T06:43:10;100.67;;;35.73;;
19341;SDS011;9807;48.258;12.690;2024-01-11T06:45:36;82.30;;;30.53;;
19341;SDS011;9807;48.258;12.690;2024-01-11T06:48:02;86.77;;;32.13;;
19341;SDS011;9807;48.258;12.690;2024-01-11T06:50:28;102.63;;;34.87;;
19341;SDS011;9807;48.258;12.690;2024-01-11T06:52:53;92.13;;;33.97;;
19341;SDS011;9807;48.258;12.690;2024-01-11T06:55:19;97.13;;;33.03;;
19341;SDS011;9807;48.258;12.690;2024-01-11T06:57:48;105.43;;;36.60;;
19341;SDS011;9807;48.258;12.690;2024-01-11T07:00:13;104.80;;;36.03;;
19341;SDS011;9807;48.258;12.690;2024-01-11T07:02:39;100.83;;;35.60;;
19341;SDS011;9807;48.258;12.690;2024-01-11T07:05:05;101.47;;;35.90;;
19341;SDS011;9807;48.258;12.690;2024-01-11T07:07:31;101.37;;;34.20;;
19341;SDS011;9807;48.258;12.690;2024-01-11T07:09:57;89.33;;;32.33;;
19341;SDS011;9807;48.258;12.690;2024-01-11T07:12:25;104.83;;;34.80;;
19341;SDS011;9807;48.258;12.690;2024-01-11T07:14:51;104.10;;;36.00;;
19341;SDS011;9807;48.258;12.690;2024-01-11T07:17:16;99.70;;;33.37;;
19341;SDS011;9807;48.258;12.690;2024-01-11T07:19:42;103.53;;;35.30;;
19341;SDS011;9807;48.258;12.690;2024-01-11T07:22:08;92.03;;;31.47;;
19341;SDS011;9807;48.258;12.690;2024-01-11T07:24:34;92.63;;;31.20;;
19341;SDS011;9807;48.258;12.690;2024-01-11T07:27:05;95.90;;;34.40;;
19341;SDS011;9807;48.258;12.690;2024-01-11T07:29:32;94.07;;;31.57;;
19341;SDS011;9807;48.258;12.690;2024-01-11T07:31:59;88.60;;;29.47;;
19341;SDS011;9807;48.258;12.690;2024-01-11T07:34:26;108.23;;;35.10;;
19341;SDS011;9807;48.258;12.690;2024-01-11T07:36:52;81.47;;;28.90;;
19341;SDS011;9807;48.258;12.690;2024-01-11T07:39:18;103.00;;;35.03;;
19341;SDS011;9807;48.258;12.690;2024-01-11T07:41:44;110.33;;;35.87;;
19341;SDS011;9807;48.258;12.690;2024-01-11T07:44:10;110.67;;;36.13;;
19341;SDS011;9807;48.258;12.690;2024-01-11T07:46:35;112.00;;;35.03;;
19341;SDS011;9807;48.258;12.690;2024-01-11T07:49:04;118.10;;;37.30;;
19341;SDS011;9807;48.258;12.690;2024-01-11T07:51:30;111.80;;;35.00;;
19341;SDS011;9807;48.258;12.690;2024-01-11T07:53:56;119.50;;;34.93;;
19341;SDS011;9807;48.258;12.690;2024-01-11T07:56:22;123.67;;;35.27;;
19341;SDS011;9807;48.258;12.690;2024-01-11T07:58:47;120.77;;;35.83;;
19341;SDS011;9807;48.258;12.690;2024-01-11T08:01:13;111.10;;;32.00;;
19341;SDS011;9807;48.258;12.690;2024-01-11T08:03:41;109.17;;;31.73;;
19341;SDS011;9807;48.258;12.690;2024-01-11T08:06:07;98.20;;;30.27;;
19341;SDS011;9807;48.258;12.690;2024-01-11T08:08:33;87.53;;;29.33;;
19341;SDS011;9807;48.258;12.690;2024-01-11T08:10:59;97.80;;;32.57;;
19341;SDS011;9807;48.258;12.690;2024-01-11T08:13:25;109.57;;;37.37;;
19341;SDS011;9807;48.258;12.690;2024-01-11T08:15:51;119.87;;;37.77;;
19341;SDS011;9807;48.258;12.690;2024-01-11T08:18:18;92.73;;;31.10;;
19341;SDS011;9807;48.258;12.690;2024-01-11T08:20:44;90.97;;;28.60;;
19341;SDS011;9807;48.258;12.690;2024-01-11T08:23:10;105.30;;;34.60;;
19341;SDS011;9807;48.258;12.690;2024-01-11T08:25:36;87.87;;;30.43;;
19341;SDS011;9807;48.258;12.690;2024-01-11T08:28:02;103.70;;;34.73;;
19341;SDS011;9807;48.258;12.690;2024-01-11T08:30:28;108.97;;;35.40;;
19341;SDS011;9807;48.258;12.690;2024-01-11T08:32:53;106.93;;;37.03;;
19341;SDS011;9807;48.258;12.690;2024-01-11T08:35:20;96.73;;;35.70;;
19341;SDS011;9807;48.258;12.690;2024-01-11T08:37:46;114.93;;;38.27;;
19341;SDS011;9807;48.258;12.690;2024-01-11T08:40:12;90.40;;;31.83;;
19341;SDS011;9807;48.258;12.690;2024-01-11T08:42:37;98.37;;;34.07;;
19341;SDS011;9807;48.258;12.690;2024-01-11T08:45:05;98.97;;;34.20;;
19341;SDS011;9807;48.258;12.690;2024-01-11T08:47:32;99.20;;;35.37;;
19341;SDS011;9807;48.258;12.690;2024-01-11T08:50:00;90.33;;;32.63;;
19341;SDS011;9807;48.258;12.690;2024-01-11T08:52:26;112.10;;;37.73;;
19341;SDS011;9807;48.258;12.690;2024-01-11T08:54:51;106.90;;;37.93;;
19341;SDS011;9807;48.258;12.690;2024-01-11T08:57:17;83.13;;;31.33;;
19341;SDS011;9807;48.258;12.690;2024-01-11T08:59:43;103.73;;;35.57;;
19341;SDS011;9807;48.258;12.690;2024-01-11T09:02:09;115.37;;;36.17;;
19341;SDS011;9807;48.258;12.690;2024-01-11T09:04:35;103.47;;;36.77;;
19341;SDS011;9807;48.258;12.690;2024-01-11T09:07:01;105.93;;;36.13;;
19341;SDS011;9807;48.258;12.690;2024-01-11T09:09:27;103.20;;;35.00;;
19341;SDS011;9807;48.258;12.690;2024-01-11T09:11:53;87.43;;;30.30;;
19341;SDS011;9807;48.258;12.690;2024-01-11T09:14:18;100.63;;;32.90;;
19341;SDS011;9807;48.258;12.690;2024-01-11T09:16:44;88.80;;;31.43;;
19341;SDS011;9807;48.258;12.690;2024-01-11T09:19:11;97.53;;;35.73;;
19341;SDS011;9807;48.258;12.690;2024-01-11T09:21:37;85.67;;;31.63;;
19341;SDS011;9807;48.258;12.690;2024-01-11T09:24:02;103.10;;;35.57;;
19341;SDS011;9807;48.258;12.690;2024-01-11T09:26:31;92.07;;;32.07;;
19341;SDS011;9807;48.258;12.690;2024-01-11T09:28:57;79.33;;;29.63;;
19341;SDS011;9807;48.258;12.690;2024-01-11T09:31:22;94.77;;;36.27;;
19341;SDS011;9807;48.258;12.690;2024-01-11T09:33:48;100.67;;;35.97;;
19341;SDS011;9807;48.258;12.690;2024-01-11T09:36:14;110.27;;;38.23;;
19341;SDS011;9807;48.258;12.690;2024-01-11T09:38:40;90.57;;;34.03;;
19341;SDS011;9807;48.258;12.690;2024-01-11T09:41:07;92.80;;;33.83;;
19341;SDS011;9807;48.258;12.690;2024-01-11T09:43:34;88.93;;;32.83;;
19341;SDS011;9807;48.258;12.690;2024-01-11T09:46:03;86.43;;;32.43;;
19341;SDS011;9807;48.258;12.690;2024-01-11T09:48:32;94.47;;;35.60;;
19341;SDS011;9807;48.258;12.690;2024-01-11T09:51:02;95.50;;;33.97;;
19341;SDS011;9807;48.258;12.690;2024-01-11T09:53:33;93.80;;;34.63;;
19341;SDS011;9807;48.258;12.690;2024-01-11T09:55:59;80.43;;;31.27;;
19341;SDS011;9807;48.258;12.690;2024-01-11T09:58:25;84.50;;;30.67;;
19341;SDS011;9807;48.258;12.690;2024-01-11T10:00:55;100.13;;;35.13;;
19341;SDS011;9807;48.258;12.690;2024-01-11T10:03:24;102.73;;;34.60;;
19341;SDS011;9807;48.258;12.690;2024-01-11T10:05:51;85.70;;;31.90;;
19341;SDS011;9807;48.258;12.690;2024-01-11T10:08:21;89.90;;;35.53;;
19341;SDS011;9807;48.258;12.690;2024-01-11T10:10:48;101.80;;;35.50;;
19341;SDS011;9807;48.258;12.690;2024-01-11T10:13:14;104.07;;;36.90;;
19341;SDS011;9807;48.258;12.690;2024-01-11T10:15:41;96.10;;;36.00;;
19341;SDS011;9807;48.258;12.690;2024-01-11T10:18:07;106.87;;;36.07;;
19341;SDS011;9807;48.258;12.690;2024-01-11T10:20:32;117.87;;;36.50;;
19341;SDS011;9807;48.258;12.690;2024-01-11T10:23:02;108.83;;;37.23;;
19341;SDS011;9807;48.258;12.690;2024-01-11T10:25:27;100.83;;;34.67;;
19341;SDS011;9807;48.258;12.690;2024-01-11T10:27:54;114.20;;;38.30;;
19341;SDS011;9807;48.258;12.690;2024-01-11T10:30:20;104.87;;;38.20;;
19341;SDS011;9807;48.258;12.690;2024-01-11T10:32:48;104.67;;;37.07;;
19341;SDS011;9807;48.258;12.690;2024-01-11T10:35:14;114.93;;;38.17;;
19341;SDS011;9807;48.258;12.690;2024-01-11T10:37:46;131.67;;;36.67;;
19341;SDS011;9807;48.258;12.690;2024-01-11T10:40:15;109.37;;;37.70;;
19341;SDS011;9807;48.258;12.690;2024-01-11T10:42:43;112.43;;;36.43;;
19341;SDS011;9807;48.258;12.690;2024-01-11T10:45:14;104.07;;;34.73;;
19341;SDS011;9807;48.258;12.690;2024-01-11T10:47:51;106.27;;;36.03;;
19341;SDS011;9807;48.258;12.690;2024-01-11T10:50:22;102.17;;;34.43;;
19341;SDS011;9807;48.258;12.690;2024-01-11T10:53:12;91.37;;;34.53;;
19341;SDS011;9807;48.258;12.690;2024-01-11T10:55:53;83.13;;;30.53;;
19341;SDS011;9807;48.258;12.690;2024-01-11T10:58:22;101.67;;;36.23;;
19341;SDS011;9807;48.258;12.690;2024-01-11T11:00:49;102.67;;;35.97;;
19341;SDS011;9807;48.258;12.690;2024-01-11T11:03:17;114.50;;;41.27;;
19341;SDS011;9807;48.258;12.690;2024-01-11T11:05:44;100.33;;;37.63;;
19341;SDS011;9807;48.258;12.690;2024-01-11T11:08:12;103.00;;;39.47;;
19341;SDS011;9807;48.258;12.690;2024-01-11T11:10:39;97.50;;;36.33;;
19341;SDS011;9807;48.258;12.690;2024-01-11T11:13:06;85.53;;;33.17;;
19341;SDS011;9807;48.258;12.690;2024-01-11T11:15:35;106.87;;;38.67;;
19341;SDS011;9807;48.258;12.690;2024-01-11T11:18:02;102.33;;;38.93;;
19341;SDS011;9807;48.258;12.690;2024-01-11T11:20:30;94.37;;;37.43;;
19341;SDS011;9807;48.258;12.690;2024-01-11T11:23:03;91.27;;;37.27;;
19341;SDS011;9807;48.258;12.690;2024-01-11T11:25:32;101.93;;;39.23;;
19341;SDS011;9807;48.258;12.690;2024-01-11T11:27:59;95.47;;;39.47;;
19341;SDS011;9807;48.258;12.690;2024-01-11T11:30:31;101.57;;;38.67;;
19341;SDS011;9807;48.258;12.690;2024-01-11T11:32:57;104.50;;;38.30;;
19341;SDS011;9807;48.258;12.690;2024-01-11T11:35:34;110.63;;;40.23;;
19341;SDS011;9807;48.258;12.690;2024-01-11T11:38:00;110.03;;;39.00;;
19341;SDS011;9807;48.258;12.690;2024-01-11T11:40:37;103.20;;;37.27;;
19341;SDS011;9807;48.258;12.690;2024-01-11T11:43:08;103.00;;;37.53;;
19341;SDS011;9807;48.258;12.690;2024-01-11T11:45:34;98.03;;;35.20;;
19341;SDS011;9807;48.258;12.690;2024-01-11T11:48:01;88.23;;;33.20;;
19341;SDS011;9807;48.258;12.690;2024-01-11T11:50:47;87.43;;;33.63;;
19341;SDS011;9807;48.258;12.690;2024-01-11T11:53:25;95.10;;;34.87;;
19341;SDS011;9807;48.258;12.690;2024-01-11T11:55:51;95.17;;;35.37;;
19341;SDS011;9807;48.258;12.690;2024-01-11T11:58:17;86.07;;;32.90;;
19341;SDS011;9807;48.258;12.690;2024-01-11T12:00:43;75.03;;;30.43;;
19341;SDS011;9807;48.258;12.690;2024-01-11T12:03:09;91.87;;;35.33;;
19341;SDS011;9807;48.258;12.690;2024-01-11T12:05:37;89.03;;;33.73;;
19341;SDS011;9807;48.258;12.690;2024-01-11T12:08:03;83.00;;;32.33;;
19341;SDS011;9807;48.258;12.690;2024-01-11T12:10:29;97.33;;;37.80;;
19341;SDS011;9807;48.258;12.690;2024-01-11T12:12:56;100.20;;;37.57;;
19341;SDS011;9807;48.258;12.690;2024-01-11T12:15:21;94.57;;;36.53;;
19341;SDS011;9807;48.258;12.690;2024-01-11T12:17:47;95.70;;;36.50;;
19341;SDS011;9807;48.258;12.690;2024-01-11T12:20:13;84.20;;;33.27;;
19341;SDS011;9807;48.258;12.690;2024-01-11T12:22:39;91.87;;;35.20;;
19341;SDS011;9807;48.258;12.690;2024-01-11T12:25:05;90.93;;;35.80;;
19341;SDS011;9807;48.258;12.690;2024-01-11T12:27:31;107.50;;;37.43;;
19341;SDS011;9807;48.258;12.690;2024-01-11T12:29:57;87.40;;;34.60;;
19341;SDS011;9807;48.258;12.690;2024-01-11T12:32:22;92.47;;;35.17;;
19341;SDS011;9807;48.258;12.690;2024-01-11T12:34:48;84.10;;;34.83;;
19341;SDS011;9807;48.258;12.690;2024-01-11T12:37:15;90.03;;;36.10;;
19341;SDS011;9807;48.258;12.690;2024-01-11T12:39:40;83.80;;;33.50;;
19341;SDS011;9807;48.258;12.690;2024-01-11T12:42:06;94.40;;;37.30;;
19341;SDS011;9807;48.258;12.690;2024-01-11T12:44:33;91.80;;;37.07;;
19341;SDS011;9807;48.258;12.690;2024-01-11T12:47:00;91.43;;;36.47;;
19341;SDS011;9807;48.258;12.690;2024-01-11T12:49:26;85.00;;;35.47;;
19341;SDS011;9807;48.258;12.690;2024-01-11T12:51:51;81.97;;;33.67;;
19341;SDS011;9807;48.258;12.690;2024-01-11T12:54:17;88.77;;;37.67;;
19341;SDS011;9807;48.258;12.690;2024-01-11T12:56:44;85.80;;;36.57;;
19341;SDS011;9807;48.258;12.690;2024-01-11T12:59:10;80.70;;;34.33;;
19341;SDS011;9807;48.258;12.690;2024-01-11T13:01:37;97.13;;;36.67;;
19341;SDS011;9807;48.258;12.690;2024-01-11T13:04:03;77.73;;;33.17;;
19341;SDS011;9807;48.258;12.690;2024-01-11T13:06:32;80.40;;;32.73;;
19341;SDS011;9807;48.258;12.690;2024-01-11T13:09:02;87.93;;;35.77;;
19341;SDS011;9807;48.258;12.690;2024-01-11T13:11:29;81.90;;;33.67;;
19341;SDS011;9807;48.258;12.690;2024-01-11T13:13:55;88.80;;;37.70;;
19341;SDS011;9807;48.258;12.690;2024-01-11T13:16:24;102.33;;;38.90;;
19341;SDS011;9807;48.258;12.690;2024-01-11T13:18:49;90.83;;;39.83;;
19341;SDS011;9807;48.258;12.690;2024-01-11T13:21:15;85.10;;;35.27;;
19341;SDS011;9807;48.258;12.690;2024-01-11T13:23:41;84.07;;;36.73;;
19341;SDS011;9807;48.258;12.690;2024-01-11T13:26:07;97.20;;;38.50;;
19341;SDS011;9807;48.258;12.690;2024-01-11T13:28:34;82.13;;;34.97;;
19341;SDS011;9807;48.258;12.690;2024-01-11T13:31:01;84.33;;;34.67;;
19341;SDS011;9807;48.258;12.690;2024-01-11T13:33:27;88.33;;;36.60;;
19341;SDS011;9807;48.258;12.690;2024-01-11T13:35:53;88.60;;;37.93;;
19341;SDS011;9807;48.258;12.690;2024-01-11T13:38:19;98.03;;;40.83;;
19341;SDS011;9807;48.258;12.690;2024-01-11T13:40:45;76.90;;;33.23;;
19341;SDS011;9807;48.258;12.690;2024-01-11T13:43:10;87.20;;;37.90;;
19341;SDS011;9807;48.258;12.690;2024-01-11T13:45:36;93.90;;;40.43;;
19341;SDS011;9807;48.258;12.690;2024-01-11T13:48:02;86.50;;;36.63;;
19341;SDS011;9807;48.258;12.690;2024-01-11T13:50:29;87.63;;;37.87;;
19341;SDS011;9807;48.258;12.690;2024-01-11T13:52:55;101.43;;;40.93;;
19341;SDS011;9807;48.258;12.690;2024-01-11T13:55:21;82.87;;;35.17;;
19341;SDS011;9807;48.258;12.690;2024-01-11T13:57:47;85.90;;;36.57;;
19341;SDS011;9807;48.258;12.690;2024-01-11T14:00:14;87.43;;;38.53;;
19341;SDS011;9807;48.258;12.690;2024-01-11T14:02:42;103.93;;;41.60;;
19341;SDS011;9807;48.258;12.690;2024-01-11T14:05:08;98.60;;;39.53;;
19341;SDS011;9807;48.258;12.690;2024-01-11T14:07:37;98.50;;;38.53;;
19341;SDS011;9807;48.258;12.690;2024-01-11T14:10:04;94.57;;;38.13;;
19341;SDS011;9807;48.258;12.690;2024-01-11T14:12:30;88.57;;;37.23;;
19341;SDS011;9807;48.258;12.690;2024-01-11T14:14:56;85.43;;;35.73;;
19341;SDS011;9807;48.258;12.690;2024-01-11T14:17:22;84.83;;;35.60;;